sensor_id;sensor_type;location;lat;lon;timestamp;temperature;humidity
21493;DHT22;10908;50.690;4.400;2023-04-16T00:02:28;8.40;78.60
21493;DHT22;10908;50.690;4.400;2023-04-16T00:04:53;8.40;78.30
21493;DHT22;10908;50.690;4.400;2023-04-16T00:07:19;8.40;76.90
21493;DHT22;10908;50.690;4.400;2023-04-16T00:09:45;8.20;77.00
21493;DHT22;10908;50.690;4.400;2023-04-16T00:12:11;8.20;76.60
21493;DHT22;10908;50.690;4.400;2023-04-16T00:14:36;8.10;76.50
21493;DHT22;10908;50.690;4.400;2023-04-16T00:17:02;8.20;76.40
21493;DHT22;10908;50.690;4.400;2023-04-16T00:19:28;8.20;76.50
21493;DHT22;10908;50.690;4.400;2023-04-16T00:21:53;8.20;76.40
21493;DHT22;10908;50.690;4.400;2023-04-16T00:24:19;8.20;76.50
21493;DHT22;10908;50.690;4.400;2023-04-16T00:26:45;8.40;76.30
21493;DHT22;10908;50.690;4.400;2023-04-16T00:29:11;8.40;76.60
21493;DHT22;10908;50.690;4.400;2023-04-16T00:31:37;8.40;76.90
21493;DHT22;10908;50.690;4.400;2023-04-16T00:34:03;8.20;77.40
21493;DHT22;10908;50.690;4.400;2023-04-16T00:36:28;8.40;77.40
21493;DHT22;10908;50.690;4.400;2023-04-16T00:38:55;8.40;77.20
21493;DHT22;10908;50.690;4.400;2023-04-16T00:41:20;8.50;77.10
21493;DHT22;10908;50.690;4.400;2023-04-16T00:43:47;8.50;77.20
21493;DHT22;10908;50.690;4.400;2023-04-16T00:46:13;8.40;77.20
21493;DHT22;10908;50.690;4.400;2023-04-16T00:48:40;8.50;77.10
21493;DHT22;10908;50.690;4.400;2023-04-16T00:51:07;8.50;77.20
21493;DHT22;10908;50.690;4.400;2023-04-16T00:53:33;8.40;77.20
21493;DHT22;10908;50.690;4.400;2023-04-16T00:56:02;8.40;77.00
21493;DHT22;10908;50.690;4.400;2023-04-16T00:58:28;8.50;77.00
21493;DHT22;10908;50.690;4.400;2023-04-16T01:00:54;8.60;76.80
21493;DHT22;10908;50.690;4.400;2023-04-16T01:03:21;8.50;76.70
21493;DHT22;10908;50.690;4.400;2023-04-16T01:05:47;8.50;76.40
21493;DHT22;10908;50.690;4.400;2023-04-16T01:08:20;8.20;77.20
21493;DHT22;10908;50.690;4.400;2023-04-16T01:10:46;8.30;77.90
21493;DHT22;10908;50.690;4.400;2023-04-16T01:13:12;8.20;77.60
21493;DHT22;10908;50.690;4.400;2023-04-16T01:15:38;8.30;77.80
21493;DHT22;10908;50.690;4.400;2023-04-16T01:18:17;8.40;77.90
21493;DHT22;10908;50.690;4.400;2023-04-16T01:20:44;8.40;77.60
21493;DHT22;10908;50.690;4.400;2023-04-16T01:23:09;8.50;77.90
21493;DHT22;10908;50.690;4.400;2023-04-16T01:25:36;8.50;77.50
21493;DHT22;10908;50.690;4.400;2023-04-16T01:28:02;8.40;77.70
21493;DHT22;10908;50.690;4.400;2023-04-16T01:30:27;8.50;78.60
21493;DHT22;10908;50.690;4.400;2023-04-16T01:32:53;8.60;77.90
21493;DHT22;10908;50.690;4.400;2023-04-16T01:35:19;8.60;77.10
21493;DHT22;10908;50.690;4.400;2023-04-16T01:37:45;8.60;77.40
21493;DHT22;10908;50.690;4.400;2023-04-16T01:40:11;8.50;76.90
21493;DHT22;10908;50.690;4.400;2023-04-16T01:42:38;8.50;76.80
21493;DHT22;10908;50.690;4.400;2023-04-16T01:45:04;8.30;76.20
21493;DHT22;10908;50.690;4.400;2023-04-16T01:47:30;8.20;77.30
21493;DHT22;10908;50.690;4.400;2023-04-16T01:49:56;8.30;76.90
21493;DHT22;10908;50.690;4.400;2023-04-16T01:52:21;8.40;76.60
21493;DHT22;10908;50.690;4.400;2023-04-16T01:54:47;8.30;76.40
21493;DHT22;10908;50.690;4.400;2023-04-16T01:57:13;8.40;76.80
21493;DHT22;10908;50.690;4.400;2023-04-16T01:59:38;8.30;77.00
21493;DHT22;10908;50.690;4.400;2023-04-16T02:02:09;8.20;77.50
21493;DHT22;10908;50.690;4.400;2023-04-16T02:04:40;8.40;77.90
21493;DHT22;10908;50.690;4.400;2023-04-16T02:07:06;8.40;77.20
21493;DHT22;10908;50.690;4.400;2023-04-16T02:09:36;8.50;77.10
21493;DHT22;10908;50.690;4.400;2023-04-16T02:12:02;8.60;76.60
21493;DHT22;10908;50.690;4.400;2023-04-16T02:14:28;8.60;77.20
21493;DHT22;10908;50.690;4.400;2023-04-16T02:16:54;8.40;77.10
21493;DHT22;10908;50.690;4.400;2023-04-16T02:19:19;8.40;77.10
21493;DHT22;10908;50.690;4.400;2023-04-16T02:21:46;8.50;77.20
21493;DHT22;10908;50.690;4.400;2023-04-16T02:24:12;8.50;77.50
21493;DHT22;10908;50.690;4.400;2023-04-16T02:26:37;8.40;77.50
21493;DHT22;10908;50.690;4.400;2023-04-16T02:29:03;8.60;77.20
21493;DHT22;10908;50.690;4.400;2023-04-16T02:31:29;8.60;77.00
21493;DHT22;10908;50.690;4.400;2023-04-16T02:33:56;8.60;76.60
21493;DHT22;10908;50.690;4.400;2023-04-16T02:36:21;8.50;77.30
21493;DHT22;10908;50.690;4.400;2023-04-16T02:38:47;8.60;77.10
21493;DHT22;10908;50.690;4.400;2023-04-16T02:41:13;8.60;77.00
21493;DHT22;10908;50.690;4.400;2023-04-16T02:43:38;8.60;77.20
21493;DHT22;10908;50.690;4.400;2023-04-16T02:46:04;8.70;76.90
21493;DHT22;10908;50.690;4.400;2023-04-16T02:48:29;8.80;77.10
21493;DHT22;10908;50.690;4.400;2023-04-16T02:50:55;8.80;76.50
21493;DHT22;10908;50.690;4.400;2023-04-16T02:53:21;8.70;76.50
21493;DHT22;10908;50.690;4.400;2023-04-16T02:55:50;8.70;76.90
21493;DHT22;10908;50.690;4.400;2023-04-16T02:58:23;8.60;77.20
21493;DHT22;10908;50.690;4.400;2023-04-16T03:00:49;8.60;77.60
21493;DHT22;10908;50.690;4.400;2023-04-16T03:03:15;8.60;77.30
21493;DHT22;10908;50.690;4.400;2023-04-16T03:05:41;8.80;77.70
21493;DHT22;10908;50.690;4.400;2023-04-16T03:08:07;8.60;77.40
21493;DHT22;10908;50.690;4.400;2023-04-16T03:10:33;8.70;77.70
21493;DHT22;10908;50.690;4.400;2023-04-16T03:12:59;8.70;77.80
21493;DHT22;10908;50.690;4.400;2023-04-16T03:15:25;8.60;78.00
21493;DHT22;10908;50.690;4.400;2023-04-16T03:17:51;8.70;78.50
21493;DHT22;10908;50.690;4.400;2023-04-16T03:20:18;8.80;78.00
21493;DHT22;10908;50.690;4.400;2023-04-16T03:22:44;8.80;78.10
21493;DHT22;10908;50.690;4.400;2023-04-16T03:25:10;8.90;78.00
21493;DHT22;10908;50.690;4.400;2023-04-16T03:27:36;9.00;77.30
21493;DHT22;10908;50.690;4.400;2023-04-16T03:30:08;9.00;77.20
21493;DHT22;10908;50.690;4.400;2023-04-16T03:32:35;8.80;77.50
21493;DHT22;10908;50.690;4.400;2023-04-16T03:35:02;8.70;78.20
21493;DHT22;10908;50.690;4.400;2023-04-16T03:37:28;8.80;78.20
21493;DHT22;10908;50.690;4.400;2023-04-16T03:39:54;8.90;78.10
21493;DHT22;10908;50.690;4.400;2023-04-16T03:42:20;8.90;77.90
21493;DHT22;10908;50.690;4.400;2023-04-16T03:44:45;8.80;78.20
21493;DHT22;10908;50.690;4.400;2023-04-16T03:47:11;8.70;78.20
21493;DHT22;10908;50.690;4.400;2023-04-16T03:49:36;8.70;78.80
21493;DHT22;10908;50.690;4.400;2023-04-16T03:52:02;8.80;78.40
21493;DHT22;10908;50.690;4.400;2023-04-16T03:54:28;8.90;78.40
21493;DHT22;10908;50.690;4.400;2023-04-16T03:56:53;8.80;78.20
21493;DHT22;10908;50.690;4.400;2023-04-16T03:59:19;8.90;78.30
21493;DHT22;10908;50.690;4.400;2023-04-16T04:01:44;8.80;78.50
21493;DHT22;10908;50.690;4.400;2023-04-16T04:04:10;8.80;79.20
21493;DHT22;10908;50.690;4.400;2023-04-16T04:06:36;8.80;79.60
21493;DHT22;10908;50.690;4.400;2023-04-16T04:09:01;8.80;79.80
21493;DHT22;10908;50.690;4.400;2023-04-16T04:11:27;8.60;80.50
21493;DHT22;10908;50.690;4.400;2023-04-16T04:13:53;8.60;80.30
21493;DHT22;10908;50.690;4.400;2023-04-16T04:16:18;8.70;80.40
21493;DHT22;10908;50.690;4.400;2023-04-16T04:18:44;8.70;80.80
21493;DHT22;10908;50.690;4.400;2023-04-16T04:21:09;8.70;81.10
21493;DHT22;10908;50.690;4.400;2023-04-16T04:23:35;8.80;81.20
21493;DHT22;10908;50.690;4.400;2023-04-16T04:26:02;8.70;81.40
21493;DHT22;10908;50.690;4.400;2023-04-16T04:28:30;8.60;81.60
21493;DHT22;10908;50.690;4.400;2023-04-16T04:30:59;8.50;81.80
21493;DHT22;10908;50.690;4.400;2023-04-16T04:33:25;8.60;82.20
21493;DHT22;10908;50.690;4.400;2023-04-16T04:35:51;8.60;82.20
21493;DHT22;10908;50.690;4.400;2023-04-16T04:38:16;8.60;82.70
21493;DHT22;10908;50.690;4.400;2023-04-16T04:40:50;8.50;82.80
21493;DHT22;10908;50.690;4.400;2023-04-16T04:43:17;8.40;83.10
21493;DHT22;10908;50.690;4.400;2023-04-16T04:45:43;8.30;83.10
21493;DHT22;10908;50.690;4.400;2023-04-16T04:48:09;8.40;83.30
21493;DHT22;10908;50.690;4.400;2023-04-16T04:50:35;8.40;83.00
21493;DHT22;10908;50.690;4.400;2023-04-16T04:53:01;8.40;83.20
21493;DHT22;10908;50.690;4.400;2023-04-16T04:55:26;8.50;83.20
21493;DHT22;10908;50.690;4.400;2023-04-16T04:57:52;8.40;83.30
21493;DHT22;10908;50.690;4.400;2023-04-16T05:00:18;8.40;83.60
21493;DHT22;10908;50.690;4.400;2023-04-16T05:02:43;8.40;83.60
21493;DHT22;10908;50.690;4.400;2023-04-16T05:05:09;8.40;83.60
21493;DHT22;10908;50.690;4.400;2023-04-16T05:07:35;8.40;84.00
21493;DHT22;10908;50.690;4.400;2023-04-16T05:10:00;8.40;83.90
21493;DHT22;10908;50.690;4.400;2023-04-16T05:12:26;8.40;84.00
21493;DHT22;10908;50.690;4.400;2023-04-16T05:14:52;8.40;84.00
21493;DHT22;10908;50.690;4.400;2023-04-16T05:17:17;8.40;84.10
21493;DHT22;10908;50.690;4.400;2023-04-16T05:19:43;8.40;84.50
21493;DHT22;10908;50.690;4.400;2023-04-16T05:22:08;8.40;84.50
21493;DHT22;10908;50.690;4.400;2023-04-16T05:24:34;8.30;84.70
21493;DHT22;10908;50.690;4.400;2023-04-16T05:27:00;8.30;85.00
21493;DHT22;10908;50.690;4.400;2023-04-16T05:29:25;8.40;85.40
21493;DHT22;10908;50.690;4.400;2023-04-16T05:31:52;8.50;85.20
21493;DHT22;10908;50.690;4.400;2023-04-16T05:34:18;8.50;85.30
21493;DHT22;10908;50.690;4.400;2023-04-16T05:36:43;8.60;84.90
21493;DHT22;10908;50.690;4.400;2023-04-16T05:39:09;8.50;85.00
21493;DHT22;10908;50.690;4.400;2023-04-16T05:41:35;8.60;85.10
21493;DHT22;10908;50.690;4.400;2023-04-16T05:44:00;8.50;84.90
21493;DHT22;10908;50.690;4.400;2023-04-16T05:46:27;8.60;84.60
21493;DHT22;10908;50.690;4.400;2023-04-16T05:48:53;8.60;84.50
21493;DHT22;10908;50.690;4.400;2023-04-16T05:51:18;8.80;84.40
21493;DHT22;10908;50.690;4.400;2023-04-16T05:53:47;8.70;83.90
21493;DHT22;10908;50.690;4.400;2023-04-16T05:56:12;8.70;84.00
21493;DHT22;10908;50.690;4.400;2023-04-16T05:58:38;8.70;83.90
21493;DHT22;10908;50.690;4.400;2023-04-16T06:01:04;8.80;84.00
21493;DHT22;10908;50.690;4.400;2023-04-16T06:03:29;8.70;83.90
21493;DHT22;10908;50.690;4.400;2023-04-16T06:05:55;8.50;84.30
21493;DHT22;10908;50.690;4.400;2023-04-16T06:08:21;8.60;84.60
21493;DHT22;10908;50.690;4.400;2023-04-16T06:10:47;8.70;84.60
21493;DHT22;10908;50.690;4.400;2023-04-16T06:13:12;8.70;84.50
21493;DHT22;10908;50.690;4.400;2023-04-16T06:15:38;8.80;84.10
21493;DHT22;10908;50.690;4.400;2023-04-16T06:18:04;8.90;83.60
21493;DHT22;10908;50.690;4.400;2023-04-16T06:20:30;8.90;83.40
21493;DHT22;10908;50.690;4.400;2023-04-16T06:22:55;8.90;83.20
21493;DHT22;10908;50.690;4.400;2023-04-16T06:25:21;8.80;82.60
21493;DHT22;10908;50.690;4.400;2023-04-16T06:27:47;8.80;83.30
21493;DHT22;10908;50.690;4.400;2023-04-16T06:30:14;8.80;83.30
21493;DHT22;10908;50.690;4.400;2023-04-16T06:32:43;8.70;83.40
21493;DHT22;10908;50.690;4.400;2023-04-16T06:35:08;8.70;83.80
21493;DHT22;10908;50.690;4.400;2023-04-16T06:37:34;8.50;84.10
21493;DHT22;10908;50.690;4.400;2023-04-16T06:40:00;8.50;84.20
21493;DHT22;10908;50.690;4.400;2023-04-16T06:42:26;8.50;84.70
21493;DHT22;10908;50.690;4.400;2023-04-16T06:44:51;8.40;84.90
21493;DHT22;10908;50.690;4.400;2023-04-16T06:47:17;8.40;85.40
21493;DHT22;10908;50.690;4.400;2023-04-16T06:49:43;8.40;85.90
21493;DHT22;10908;50.690;4.400;2023-04-16T06:52:08;8.60;85.90
21493;DHT22;10908;50.690;4.400;2023-04-16T06:54:35;8.60;85.30
21493;DHT22;10908;50.690;4.400;2023-04-16T06:57:00;8.70;85.60
21493;DHT22;10908;50.690;4.400;2023-04-16T06:59:26;8.60;85.40
21493;DHT22;10908;50.690;4.400;2023-04-16T07:01:51;8.70;85.20
21493;DHT22;10908;50.690;4.400;2023-04-16T07:04:17;8.60;85.30
21493;DHT22;10908;50.690;4.400;2023-04-16T07:06:43;8.80;85.40
21493;DHT22;10908;50.690;4.400;2023-04-16T07:09:08;8.70;85.10
21493;DHT22;10908;50.690;4.400;2023-04-16T07:11:34;8.70;85.30
21493;DHT22;10908;50.690;4.400;2023-04-16T07:14:00;8.70;85.60
21493;DHT22;10908;50.690;4.400;2023-04-16T07:16:25;8.80;85.60
21493;DHT22;10908;50.690;4.400;2023-04-16T07:18:51;8.70;85.50
21493;DHT22;10908;50.690;4.400;2023-04-16T07:21:17;8.70;85.60
21493;DHT22;10908;50.690;4.400;2023-04-16T07:23:42;8.80;85.70
21493;DHT22;10908;50.690;4.400;2023-04-16T07:26:08;8.60;85.70
21493;DHT22;10908;50.690;4.400;2023-04-16T07:28:34;8.70;85.70
21493;DHT22;10908;50.690;4.400;2023-04-16T07:31:00;8.70;85.70
21493;DHT22;10908;50.690;4.400;2023-04-16T07:33:26;8.80;85.20
21493;DHT22;10908;50.690;4.400;2023-04-16T07:35:51;8.70;85.20
21493;DHT22;10908;50.690;4.400;2023-04-16T07:38:17;8.80;85.00
21493;DHT22;10908;50.690;4.400;2023-04-16T07:40:42;8.70;85.00
21493;DHT22;10908;50.690;4.400;2023-04-16T07:43:08;8.70;85.10
21493;DHT22;10908;50.690;4.400;2023-04-16T07:45:35;8.80;85.30
21493;DHT22;10908;50.690;4.400;2023-04-16T07:48:01;8.80;85.00
21493;DHT22;10908;50.690;4.400;2023-04-16T07:50:27;8.80;85.20
21493;DHT22;10908;50.690;4.400;2023-04-16T07:52:52;8.80;85.10
21493;DHT22;10908;50.690;4.400;2023-04-16T07:55:18;8.90;85.00
21493;DHT22;10908;50.690;4.400;2023-04-16T07:57:44;8.90;84.80
21493;DHT22;10908;50.690;4.400;2023-04-16T08:00:10;8.90;84.50
21493;DHT22;10908;50.690;4.400;2023-04-16T08:02:36;8.80;84.70
21493;DHT22;10908;50.690;4.400;2023-04-16T08:05:02;8.80;84.80
21493;DHT22;10908;50.690;4.400;2023-04-16T08:07:28;8.80;85.00
21493;DHT22;10908;50.690;4.400;2023-04-16T08:09:53;8.80;85.30
21493;DHT22;10908;50.690;4.400;2023-04-16T08:12:19;8.80;85.30
21493;DHT22;10908;50.690;4.400;2023-04-16T08:14:46;8.80;85.20
21493;DHT22;10908;50.690;4.400;2023-04-16T08:17:12;8.90;85.10
21493;DHT22;10908;50.690;4.400;2023-04-16T08:19:38;8.80;84.90
21493;DHT22;10908;50.690;4.400;2023-04-16T08:22:04;8.80;85.20
21493;DHT22;10908;50.690;4.400;2023-04-16T08:24:30;9.00;85.20
21493;DHT22;10908;50.690;4.400;2023-04-16T08:26:55;8.90;84.60
21493;DHT22;10908;50.690;4.400;2023-04-16T08:29:21;8.90;84.80
21493;DHT22;10908;50.690;4.400;2023-04-16T08:31:49;8.90;84.50
21493;DHT22;10908;50.690;4.400;2023-04-16T08:34:15;8.90;84.50
21493;DHT22;10908;50.690;4.400;2023-04-16T08:36:41;9.00;84.60
21493;DHT22;10908;50.690;4.400;2023-04-16T08:39:06;9.00;84.20
21493;DHT22;10908;50.690;4.400;2023-04-16T08:41:33;9.10;84.10
21493;DHT22;10908;50.690;4.400;2023-04-16T08:44:10;9.10;84.10
21493;DHT22;10908;50.690;4.400;2023-04-16T08:46:40;9.00;83.90
21493;DHT22;10908;50.690;4.400;2023-04-16T08:49:06;8.90;84.40
21493;DHT22;10908;50.690;4.400;2023-04-16T08:51:35;9.00;84.50
21493;DHT22;10908;50.690;4.400;2023-04-16T08:54:06;9.10;84.40
21493;DHT22;10908;50.690;4.400;2023-04-16T08:56:35;9.10;84.30
21493;DHT22;10908;50.690;4.400;2023-04-16T08:59:02;9.30;83.90
21493;DHT22;10908;50.690;4.400;2023-04-16T09:01:31;9.20;84.10
21493;DHT22;10908;50.690;4.400;2023-04-16T09:03:58;9.10;83.90
21493;DHT22;10908;50.690;4.400;2023-04-16T09:06:26;9.20;84.00
21493;DHT22;10908;50.690;4.400;2023-04-16T09:08:53;9.30;83.70
21493;DHT22;10908;50.690;4.400;2023-04-16T09:11:19;9.10;83.80
21493;DHT22;10908;50.690;4.400;2023-04-16T09:13:46;9.10;84.40
21493;DHT22;10908;50.690;4.400;2023-04-16T09:16:13;9.00;84.10
21493;DHT22;10908;50.690;4.400;2023-04-16T09:18:39;9.00;84.60
21493;DHT22;10908;50.690;4.400;2023-04-16T09:21:08;9.10;84.60
21493;DHT22;10908;50.690;4.400;2023-04-16T09:23:36;9.20;84.30
21493;DHT22;10908;50.690;4.400;2023-04-16T09:26:03;9.30;83.90
21493;DHT22;10908;50.690;4.400;2023-04-16T09:28:40;9.10;83.80
21493;DHT22;10908;50.690;4.400;2023-04-16T09:31:14;9.10;84.30
21493;DHT22;10908;50.690;4.400;2023-04-16T09:33:41;9.10;84.80
21493;DHT22;10908;50.690;4.400;2023-04-16T09:36:07;9.10;84.90
21493;DHT22;10908;50.690;4.400;2023-04-16T09:38:51;9.10;84.90
21493;DHT22;10908;50.690;4.400;2023-04-16T09:41:17;9.10;84.80
21493;DHT22;10908;50.690;4.400;2023-04-16T09:46:22;9.00;85.50
21493;DHT22;10908;50.690;4.400;2023-04-16T09:48:48;8.90;85.60
21493;DHT22;10908;50.690;4.400;2023-04-16T09:51:13;9.00;85.70
21493;DHT22;10908;50.690;4.400;2023-04-16T09:53:39;9.10;85.50
21493;DHT22;10908;50.690;4.400;2023-04-16T09:56:05;8.80;85.80
21493;DHT22;10908;50.690;4.400;2023-04-16T09:58:32;8.70;86.20
21493;DHT22;10908;50.690;4.400;2023-04-16T10:01:02;8.60;86.60
21493;DHT22;10908;50.690;4.400;2023-04-16T10:03:31;8.80;87.00
21493;DHT22;10908;50.690;4.400;2023-04-16T10:08:30;8.90;86.50
21493;DHT22;10908;50.690;4.400;2023-04-16T10:10:56;9.00;86.20
21493;DHT22;10908;50.690;4.400;2023-04-16T10:13:23;8.90;86.20
21493;DHT22;10908;50.690;4.400;2023-04-16T10:15:56;8.90;86.40
21493;DHT22;10908;50.690;4.400;2023-04-16T10:18:22;9.00;86.50
21493;DHT22;10908;50.690;4.400;2023-04-16T10:20:49;8.90;86.50
21493;DHT22;10908;50.690;4.400;2023-04-16T10:23:15;9.10;86.50
21493;DHT22;10908;50.690;4.400;2023-04-16T10:25:41;9.10;86.60
21493;DHT22;10908;50.690;4.400;2023-04-16T10:28:09;9.10;86.60
21493;DHT22;10908;50.690;4.400;2023-04-16T10:30:35;9.10;86.40
21493;DHT22;10908;50.690;4.400;2023-04-16T10:33:03;9.20;86.60
21493;DHT22;10908;50.690;4.400;2023-04-16T10:35:29;9.30;86.40
21493;DHT22;10908;50.690;4.400;2023-04-16T10:37:56;9.20;86.30
21493;DHT22;10908;50.690;4.400;2023-04-16T10:40:24;9.30;86.30
21493;DHT22;10908;50.690;4.400;2023-04-16T10:42:57;9.50;86.30
21493;DHT22;10908;50.690;4.400;2023-04-16T10:45:37;9.60;86.00
21493;DHT22;10908;50.690;4.400;2023-04-16T10:48:06;9.50;85.60
21493;DHT22;10908;50.690;4.400;2023-04-16T10:50:37;9.50;85.40
21493;DHT22;10908;50.690;4.400;2023-04-16T10:53:24;9.40;86.20
21493;DHT22;10908;50.690;4.400;2023-04-16T10:55:57;9.10;86.40
21493;DHT22;10908;50.690;4.400;2023-04-16T10:58:29;9.10;87.10
21493;DHT22;10908;50.690;4.400;2023-04-16T11:00:58;9.20;87.70
21493;DHT22;10908;50.690;4.400;2023-04-16T11:03:24;9.10;87.60
21493;DHT22;10908;50.690;4.400;2023-04-16T11:05:50;9.10;87.60
21493;DHT22;10908;50.690;4.400;2023-04-16T11:08:16;9.10;87.60
21493;DHT22;10908;50.690;4.400;2023-04-16T11:10:42;9.00;87.40
21493;DHT22;10908;50.690;4.400;2023-04-16T11:13:08;9.20;87.90
21493;DHT22;10908;50.690;4.400;2023-04-16T11:15:36;9.30;87.90
21493;DHT22;10908;50.690;4.400;2023-04-16T11:18:03;9.40;87.70
21493;DHT22;10908;50.690;4.400;2023-04-16T11:20:31;9.40;87.10
21493;DHT22;10908;50.690;4.400;2023-04-16T11:22:58;9.50;87.00
21493;DHT22;10908;50.690;4.400;2023-04-16T11:25:26;9.60;86.70
21493;DHT22;10908;50.690;4.400;2023-04-16T11:27:52;9.50;86.30
21493;DHT22;10908;50.690;4.400;2023-04-16T11:30:26;9.60;86.10
21493;DHT22;10908;50.690;4.400;2023-04-16T11:32:52;9.80;85.60
21493;DHT22;10908;50.690;4.400;2023-04-16T11:35:18;9.80;85.00
21493;DHT22;10908;50.690;4.400;2023-04-16T11:37:45;9.70;84.70
21493;DHT22;10908;50.690;4.400;2023-04-16T11:40:11;9.70;84.70
21493;DHT22;10908;50.690;4.400;2023-04-16T11:42:39;9.60;84.40
21493;DHT22;10908;50.690;4.400;2023-04-16T11:45:09;9.50;85.00
21493;DHT22;10908;50.690;4.400;2023-04-16T11:47:49;9.60;84.90
21493;DHT22;10908;50.690;4.400;2023-04-16T11:52:49;9.90;84.60
21493;DHT22;10908;50.690;4.400;2023-04-16T11:55:15;9.80;84.40
21493;DHT22;10908;50.690;4.400;2023-04-16T11:57:41;9.90;84.20
21493;DHT22;10908;50.690;4.400;2023-04-16T12:00:07;9.80;84.00
21493;DHT22;10908;50.690;4.400;2023-04-16T12:05:29;9.80;84.20
21493;DHT22;10908;50.690;4.400;2023-04-16T12:07:56;9.80;84.10
21493;DHT22;10908;50.690;4.400;2023-04-16T12:10:22;9.90;84.20
21493;DHT22;10908;50.690;4.400;2023-04-16T12:12:48;10.00;83.70
21493;DHT22;10908;50.690;4.400;2023-04-16T12:15:15;10.00;83.60
21493;DHT22;10908;50.690;4.400;2023-04-16T12:17:41;10.10;83.40
21493;DHT22;10908;50.690;4.400;2023-04-16T12:20:11;10.00;83.60
21493;DHT22;10908;50.690;4.400;2023-04-16T12:22:39;9.90;83.00
21493;DHT22;10908;50.690;4.400;2023-04-16T12:25:13;9.90;83.20
21493;DHT22;10908;50.690;4.400;2023-04-16T12:27:53;9.80;83.30
21493;DHT22;10908;50.690;4.400;2023-04-16T12:30:21;9.90;83.30
21493;DHT22;10908;50.690;4.400;2023-04-16T12:32:49;9.90;83.00
21493;DHT22;10908;50.690;4.400;2023-04-16T12:35:35;9.90;83.10
21493;DHT22;10908;50.690;4.400;2023-04-16T12:38:00;9.90;83.20
21493;DHT22;10908;50.690;4.400;2023-04-16T12:40:27;10.00;83.30
21493;DHT22;10908;50.690;4.400;2023-04-16T12:42:53;9.90;83.50
21493;DHT22;10908;50.690;4.400;2023-04-16T12:45:19;9.90;83.60
21493;DHT22;10908;50.690;4.400;2023-04-16T12:47:45;9.90;83.80
21493;DHT22;10908;50.690;4.400;2023-04-16T12:50:14;9.80;83.50
21493;DHT22;10908;50.690;4.400;2023-04-16T12:52:40;9.60;84.20
21493;DHT22;10908;50.690;4.400;2023-04-16T12:55:06;9.70;84.50
21493;DHT22;10908;50.690;4.400;2023-04-16T12:57:32;9.80;84.20
21493;DHT22;10908;50.690;4.400;2023-04-16T12:59:58;9.90;84.10
21493;DHT22;10908;50.690;4.400;2023-04-16T13:02:24;9.80;84.40
21493;DHT22;10908;50.690;4.400;2023-04-16T13:04:51;9.80;84.60
21493;DHT22;10908;50.690;4.400;2023-04-16T13:07:17;9.80;84.60
21493;DHT22;10908;50.690;4.400;2023-04-16T13:09:44;9.90;84.50
21493;DHT22;10908;50.690;4.400;2023-04-16T13:12:10;9.90;84.20
21493;DHT22;10908;50.690;4.400;2023-04-16T13:14:36;9.90;84.10
21493;DHT22;10908;50.690;4.400;2023-04-16T13:17:02;9.90;84.10
21493;DHT22;10908;50.690;4.400;2023-04-16T13:19:30;10.10;83.80
21493;DHT22;10908;50.690;4.400;2023-04-16T13:21:57;10.10;83.60
21493;DHT22;10908;50.690;4.400;2023-04-16T13:24:22;10.10;83.70
21493;DHT22;10908;50.690;4.400;2023-04-16T13:26:49;10.20;83.60
21493;DHT22;10908;50.690;4.400;2023-04-16T13:29:17;10.20;83.30
21493;DHT22;10908;50.690;4.400;2023-04-16T13:31:42;10.40;83.10
21493;DHT22;10908;50.690;4.400;2023-04-16T13:34:08;10.30;83.10
21493;DHT22;10908;50.690;4.400;2023-04-16T13:36:34;10.30;83.50
21493;DHT22;10908;50.690;4.400;2023-04-16T13:39:00;10.20;83.30
21493;DHT22;10908;50.690;4.400;2023-04-16T13:41:28;10.10;83.60
21493;DHT22;10908;50.690;4.400;2023-04-16T13:43:54;10.20;83.60
21493;DHT22;10908;50.690;4.400;2023-04-16T13:46:20;10.20;83.30
21493;DHT22;10908;50.690;4.400;2023-04-16T13:48:45;10.30;83.40
21493;DHT22;10908;50.690;4.400;2023-04-16T13:51:13;10.30;83.10
21493;DHT22;10908;50.690;4.400;2023-04-16T13:53:40;10.30;83.00
21493;DHT22;10908;50.690;4.400;2023-04-16T13:56:07;10.30;83.30
21493;DHT22;10908;50.690;4.400;2023-04-16T13:58:33;10.30;83.00
21493;DHT22;10908;50.690;4.400;2023-04-16T14:00:59;10.30;83.00
21493;DHT22;10908;50.690;4.400;2023-04-16T14:03:27;10.30;83.20
21493;DHT22;10908;50.690;4.400;2023-04-16T14:05:53;10.30;82.80
21493;DHT22;10908;50.690;4.400;2023-04-16T14:08:19;10.20;83.30
21493;DHT22;10908;50.690;4.400;2023-04-16T14:10:47;10.30;83.20
21493;DHT22;10908;50.690;4.400;2023-04-16T14:13:14;10.20;83.40
21493;DHT22;10908;50.690;4.400;2023-04-16T14:15:40;10.20;83.40
21493;DHT22;10908;50.690;4.400;2023-04-16T14:18:06;10.30;83.40
21493;DHT22;10908;50.690;4.400;2023-04-16T14:20:31;10.30;83.10
21493;DHT22;10908;50.690;4.400;2023-04-16T14:22:57;10.30;83.00
21493;DHT22;10908;50.690;4.400;2023-04-16T14:25:23;10.30;83.00
21493;DHT22;10908;50.690;4.400;2023-04-16T14:27:49;10.40;83.00
21493;DHT22;10908;50.690;4.400;2023-04-16T14:30:15;10.50;83.00
21493;DHT22;10908;50.690;4.400;2023-04-16T14:32:41;10.50;82.50
21493;DHT22;10908;50.690;4.400;2023-04-16T14:35:07;10.30;83.00
21493;DHT22;10908;50.690;4.400;2023-04-16T14:37:35;10.40;83.00
21493;DHT22;10908;50.690;4.400;2023-04-16T14:40:02;10.50;83.20
21493;DHT22;10908;50.690;4.400;2023-04-16T14:42:33;10.70;82.50
21493;DHT22;10908;50.690;4.400;2023-04-16T14:45:01;11.00;81.50
21493;DHT22;10908;50.690;4.400;2023-04-16T14:47:26;10.90;81.10
21493;DHT22;10908;50.690;4.400;2023-04-16T14:49:52;10.90;80.90
21493;DHT22;10908;50.690;4.400;2023-04-16T14:52:18;11.00;81.60
21493;DHT22;10908;50.690;4.400;2023-04-16T14:54:44;11.20;80.70
21493;DHT22;10908;50.690;4.400;2023-04-16T14:57:09;11.30;80.30
21493;DHT22;10908;50.690;4.400;2023-04-16T14:59:35;11.50;79.60
21493;DHT22;10908;50.690;4.400;2023-04-16T15:02:01;11.30;79.50
21493;DHT22;10908;50.690;4.400;2023-04-16T15:04:27;11.00;80.40
21493;DHT22;10908;50.690;4.400;2023-04-16T15:06:53;11.00;80.70
21493;DHT22;10908;50.690;4.400;2023-04-16T15:09:24;10.90;80.70
21493;DHT22;10908;50.690;4.400;2023-04-16T15:11:50;10.70;81.30
21493;DHT22;10908;50.690;4.400;2023-04-16T15:14:16;10.80;81.60
21493;DHT22;10908;50.690;4.400;2023-04-16T15:16:41;10.80;81.60
21493;DHT22;10908;50.690;4.400;2023-04-16T15:19:07;10.60;81.60
21493;DHT22;10908;50.690;4.400;2023-04-16T15:21:33;10.80;81.90
21493;DHT22;10908;50.690;4.400;2023-04-16T15:23:58;10.80;81.70
21493;DHT22;10908;50.690;4.400;2023-04-16T15:26:24;10.80;81.90
21493;DHT22;10908;50.690;4.400;2023-04-16T15:28:50;10.90;81.80
21493;DHT22;10908;50.690;4.400;2023-04-16T15:31:15;10.90;81.60
21493;DHT22;10908;50.690;4.400;2023-04-16T15:33:41;10.90;81.40
21493;DHT22;10908;50.690;4.400;2023-04-16T15:36:07;10.90;81.50
21493;DHT22;10908;50.690;4.400;2023-04-16T15:38:32;10.80;81.70
21493;DHT22;10908;50.690;4.400;2023-04-16T15:40:58;10.80;82.00
21493;DHT22;10908;50.690;4.400;2023-04-16T15:55:14;10.70;81.90
21493;DHT22;10908;50.690;4.400;2023-04-16T15:57:40;10.90;82.40
21493;DHT22;10908;50.690;4.400;2023-04-16T16:00:07;10.90;81.70
21493;DHT22;10908;50.690;4.400;2023-04-16T16:02:39;11.00;81.70